createdAt,value
2022-08-28T00:00:02.391Z,149311.47
2022-08-28T00:01:08.519Z,149328.47
2022-08-28T00:02:10.697Z,149301.75
2022-08-28T00:03:14.665Z,149328.47
2022-08-28T00:04:18.401Z,149287.13
2022-08-28T00:05:22.368Z,149316.31
2022-08-28T00:06:24.611Z,149310.25
2022-08-28T00:07:26.917Z,149294.41
2022-08-28T00:08:30.513Z,149294.41
2022-08-28T00:09:32.913Z,149316.31
2022-08-28T00:10:35.927Z,149340.69
2022-08-28T00:11:39.022Z,149333.41
2022-08-28T00:12:41.403Z,149321.19
2022-08-28T00:13:45.520Z,149292.00
2022-08-28T00:14:47.675Z,149290.78
2022-08-28T00:15:55.524Z,149377.16
2022-08-28T00:16:57.835Z,149374.75
2022-08-28T00:18:01.620Z,149378.38
2022-08-28T00:19:05.129Z,149428.22
2022-08-28T00:20:10.344Z,149419.72
2022-08-28T00:21:13.219Z,149377.16
2022-08-28T00:22:15.733Z,149355.28
2022-08-28T00:23:18.346Z,149375.97
2022-08-28T00:24:20.560Z,149373.53
2022-08-28T00:25:26.256Z,149413.66
2022-08-28T00:26:47.285Z,149403.94
2022-08-28T00:27:52.591Z,149547.44
2022-08-28T00:28:54.654Z,149419.72
2022-08-28T00:29:56.895Z,149373.53
2022-08-28T00:30:59.242Z,149343.13
2022-08-28T00:32:01.824Z,149347.97
2022-08-28T00:33:08.003Z,149390.53
2022-08-28T00:34:13.350Z,149340.69
2022-08-28T00:35:17.692Z,149350.41
2022-08-28T00:36:19.961Z,149347.97
2022-08-28T00:37:24.606Z,149295.63
2022-08-28T00:38:28.857Z,149352.84
2022-08-28T00:39:32.179Z,149304.19
2022-08-28T00:40:35.042Z,149261.59
2022-08-28T00:41:41.227Z,149275.00
2022-08-28T00:42:43.654Z,149253.09
2022-08-28T00:43:47.977Z,149299.28
2022-08-28T00:44:50.221Z,149250.66
2022-08-28T00:45:53.327Z,149311.47
2022-08-28T00:46:58.864Z,149306.59
2022-08-28T00:48:01.670Z,149261.59
2022-08-28T00:49:04.718Z,149270.13
2022-08-28T00:50:10.763Z,149292.00
2022-08-28T00:51:34.670Z,149356.47
2022-08-28T00:52:38.030Z,149335.84
2022-08-28T00:53:40.262Z,149347.97
2022-08-28T00:54:58.881Z,149338.28
2022-08-28T00:56:10.266Z,149333.41
2022-08-28T00:57:21.074Z,149341.91
2022-08-28T00:58:29.457Z,149270.13
2022-08-28T00:59:31.635Z,149231.19
2022-08-28T01:00:37.315Z,146579.94
2022-08-28T01:01:39.575Z,130577.72
2022-08-28T01:02:42.075Z,130587.28
2022-08-28T01:03:45.190Z,128227.91
2022-08-28T01:04:48.280Z,125884.13
2022-08-28T01:05:50.569Z,125512.63
2022-08-28T01:06:57.194Z,120169.66
2022-08-28T01:08:00.548Z,123155.47
2022-08-28T01:09:04.437Z,119812.78
2022-08-28T01:10:14.228Z,114439.06
2022-08-28T01:11:18.432Z,113085.25
2022-08-28T01:12:29.616Z,112776.72
2022-08-28T01:13:33.201Z,119478.31
2022-08-28T01:14:39.301Z,114421.50
2022-08-28T01:15:42.579Z,115069.28
2022-08-28T01:16:45.656Z,109006.81
2022-08-28T01:17:52.010Z,110441.16
2022-08-28T01:18:55.213Z,130635.97
2022-08-28T01:20:02.918Z,126241.56
2022-08-28T01:21:20.103Z,128624.47
2022-08-28T01:22:37.372Z,120183.25
2022-08-28T01:23:54.637Z,135665.22
2022-08-28T01:25:00.816Z,135384.66
2022-08-28T01:26:03.116Z,138688.09
2022-08-28T01:27:13.120Z,138710.63
2022-08-28T01:28:15.770Z,141070.50
2022-08-28T01:29:18.243Z,138693.72
2022-08-28T01:30:22.827Z,136015.19
2022-08-28T01:31:26.738Z,134990.88
2022-08-28T01:32:35.507Z,131615.28
2022-08-28T01:33:42.426Z,131575.78
2022-08-28T01:34:44.922Z,127521.72
2022-08-28T01:35:48.301Z,126870.44
2022-08-28T01:36:50.506Z,121769.72
2022-08-28T01:37:55.776Z,116405.69
2022-08-28T01:39:04.825Z,119477.34
2022-08-28T01:40:09.393Z,124842.03
2022-08-28T01:41:14.063Z,128908.44
2022-08-28T01:42:16.265Z,134636.81
2022-08-28T01:43:21.990Z,136050.53
2022-08-28T01:44:26.712Z,143107.09
2022-08-28T01:45:29.302Z,137314.16
2022-08-28T01:46:31.879Z,136328.63
2022-08-28T01:47:34.083Z,136978.63
2022-08-28T01:48:40.049Z,137036.50
2022-08-28T01:49:42.264Z,135969.88
2022-08-28T01:50:45.034Z,128190.47
2022-08-28T01:51:47.549Z,126839.59
2022-08-28T01:52:50.878Z,124490.16
2022-08-28T01:53:53.138Z,127517.59
2022-08-28T01:54:55.387Z,128181.13
2022-08-28T01:56:02.373Z,123494.13
2022-08-28T01:57:06.756Z,130225.69
2022-08-28T01:58:10.277Z,127528.94
2022-08-28T01:59:14.266Z,122799.94
2022-08-28T02:00:17.994Z,118426.09
2022-08-28T02:01:21.820Z,124520.41
2022-08-28T02:02:24.182Z,130553.38
2022-08-28T02:03:26.915Z,135635.47
2022-08-28T02:04:32.263Z,132241.91
2022-08-28T02:05:35.598Z,138703.84
2022-08-28T02:06:38.018Z,141025.78
2022-08-28T02:07:40.654Z,134948.16
2022-08-28T02:08:42.897Z,136278.78
2022-08-28T02:09:45.348Z,137972.97
2022-08-28T02:10:47.681Z,132225.78
2022-08-28T02:11:49.948Z,132916.66
2022-08-28T02:12:53.381Z,134631.38
2022-08-28T02:13:56.355Z,132542.63
2022-08-28T02:14:58.679Z,126142.38
2022-08-28T02:16:00.929Z,130196.09
2022-08-28T02:17:03.188Z,131537.34
2022-08-28T02:18:06.274Z,128875.00
2022-08-28T02:19:09.623Z,126186.34
2022-08-28T02:20:11.854Z,126817.00
2022-08-28T02:21:14.099Z,131555.47
2022-08-28T02:22:16.344Z,131537.34
2022-08-28T02:23:18.539Z,133571.97
2022-08-28T02:24:20.714Z,135932.31
2022-08-28T02:25:23.524Z,134251.22
2022-08-28T02:26:26.036Z,136946.34
2022-08-28T02:27:28.309Z,136263.28
2022-08-28T02:28:31.001Z,132195.69
2022-08-28T02:29:33.246Z,130515.22
2022-08-28T02:30:36.613Z,133231.34
2022-08-28T02:31:38.909Z,127118.72
2022-08-28T02:32:41.280Z,125453.59
2022-08-28T02:33:45.186Z,128170.75
2022-08-28T02:34:47.451Z,127122.84
2022-08-28T02:35:49.838Z,124092.06
2022-08-28T02:36:52.087Z,127122.84
2022-08-28T02:37:54.565Z,125786.22
2022-08-28T02:38:58.571Z,125433.25
2022-08-28T02:40:01.146Z,123079.66
2022-08-28T02:41:04.402Z,123419.09
2022-08-28T02:42:07.028Z,123758.59
2022-08-28T02:43:09.377Z,128139.53
2022-08-28T02:44:11.571Z,130821.50
2022-08-28T02:45:15.007Z,127151.72
2022-08-28T02:46:17.260Z,132862.66
2022-08-28T02:47:19.710Z,131505.28
2022-08-28T02:48:21.922Z,126777.88
2022-08-28T02:49:24.191Z,125408.84
2022-08-28T02:50:26.393Z,113625.59
2022-08-28T02:51:33.386Z,105945.19
2022-08-28T02:52:37.416Z,110636.63
2022-08-28T02:53:41.147Z,110290.56
2022-08-28T02:54:43.303Z,107570.03
2022-08-28T02:55:45.789Z,102884.28
2022-08-28T02:56:48.159Z,97527.69
2022-08-28T02:57:50.947Z,102900.84
2022-08-28T02:58:53.940Z,105899.91
2022-08-28T03:00:01.735Z,108251.34
2022-08-28T03:01:07.034Z,109298.94
2022-08-28T03:02:10.140Z,115653.22
2022-08-28T03:03:12.464Z,115644.81
2022-08-28T03:04:14.759Z,115975.84
2022-08-28T03:05:21.036Z,114685.13
2022-08-28T03:06:23.253Z,113275.47
2022-08-28T03:07:25.434Z,102874.31
2022-08-28T03:08:28.928Z,101574.84
2022-08-28T03:09:31.103Z,106918.28
2022-08-28T03:10:33.351Z,107586.50
2022-08-28T03:11:36.953Z,104226.13
2022-08-28T03:12:39.331Z,107920.66
2022-08-28T03:13:42.377Z,109262.75
2022-08-28T03:14:44.571Z,108592.53
2022-08-28T03:15:47.498Z,109623.56
2022-08-28T03:16:54.186Z,117332.19
2022-08-28T03:17:56.456Z,119351.69
2022-08-28T03:18:58.650Z,124045.81
2022-08-28T03:20:00.817Z,119670.31
2022-08-28T03:21:03.240Z,116969.84
2022-08-28T03:22:05.455Z,107557.88
2022-08-28T03:23:26.379Z,103888.09
2022-08-28T03:24:28.576Z,105563.41
2022-08-28T03:25:31.116Z,109582.88
2022-08-28T03:26:34.143Z,104895.56
2022-08-28T03:27:38.570Z,106239.88
2022-08-28T03:28:44.440Z,101574.03
2022-08-28T03:29:46.614Z,102203.66
2022-08-28T03:30:49.698Z,101206.06
2022-08-28T03:31:52.709Z,102547.25
2022-08-28T03:32:54.920Z,102216.84
2022-08-28T03:33:57.541Z,99184.19
2022-08-28T03:35:00.119Z,95194.28
2022-08-28T03:36:04.675Z,100544.63
2022-08-28T03:37:07.485Z,109260.09
2022-08-28T03:38:11.658Z,107904.13
2022-08-28T03:39:14.074Z,106572.19
2022-08-28T03:40:16.571Z,103542.59
2022-08-28T03:41:21.363Z,96864.22
2022-08-28T03:42:23.937Z,93823.34
2022-08-28T03:43:27.369Z,91491.19
2022-08-28T03:44:29.754Z,87477.13
2022-08-28T03:45:31.925Z,88151.91
2022-08-28T03:46:34.300Z,88142.00
2022-08-28T03:47:41.754Z,85811.91
2022-08-28T03:48:46.291Z,80822.94
2022-08-28T03:49:55.354Z,78851.28
2022-08-28T03:51:00.263Z,81822.06
2022-08-28T03:52:02.648Z,81146.44
2022-08-28T03:53:04.829Z,83151.63
2022-08-28T03:54:06.984Z,88161.09
2022-08-28T03:55:11.738Z,86158.69
2022-08-28T03:56:18.855Z,82833.44
2022-08-28T03:57:22.898Z,85834.56
2022-08-28T03:58:25.864Z,91498.53
2022-08-28T03:59:33.465Z,92486.63
2022-08-28T04:00:35.781Z,94816.91
2022-08-28T04:01:38.336Z,96484.38
2022-08-28T04:02:42.129Z,95833.66
2022-08-28T04:03:45.216Z,93808.28
2022-08-28T04:04:49.262Z,93159.78
2022-08-28T04:05:51.869Z,92804.53
2022-08-28T04:06:54.042Z,91148.91
2022-08-28T04:07:56.291Z,92791.13
2022-08-28T04:09:00.251Z,86465.47
2022-08-28T04:10:04.061Z,90843.19
2022-08-28T04:11:06.717Z,96150.53
2022-08-28T04:12:09.824Z,90809.66
2022-08-28T04:13:14.151Z,88166.03
2022-08-28T04:14:16.352Z,92135.31
2022-08-28T04:15:18.525Z,98506.31
2022-08-28T04:16:21.123Z,103521.75
2022-08-28T04:17:23.765Z,101841.31
2022-08-28T04:18:27.448Z,98511.88
2022-08-28T04:19:30.258Z,101828.19
2022-08-28T04:20:32.491Z,98817.38
2022-08-28T04:21:34.721Z,97472.00
2022-08-28T04:22:37.355Z,95801.31
2022-08-28T04:23:43.240Z,92161.19
2022-08-28T04:24:45.461Z,97147.50
2022-08-28T04:25:47.596Z,96468.88
2022-08-28T04:26:49.987Z,95812.06
2022-08-28T04:27:52.338Z,98146.19
2022-08-28T04:28:55.999Z,95492.13
2022-08-28T04:29:59.159Z,98835.66
2022-08-28T04:31:02.156Z,102524.97
2022-08-28T04:32:04.371Z,106530.06
2022-08-28T04:33:06.599Z,105860.63
2022-08-28T04:34:10.421Z,106550.69
2022-08-28T04:35:13.016Z,108193.72
2022-08-28T04:36:18.834Z,99191.34
2022-08-28T04:37:21.049Z,104501.81
2022-08-28T04:38:26.703Z,104181.59
2022-08-28T04:39:28.868Z,102171.56
2022-08-28T04:40:31.157Z,102177.31
2022-08-28T04:41:33.360Z,105525.94
2022-08-28T04:42:35.882Z,106549.84
2022-08-28T04:43:38.062Z,106860.53
2022-08-28T04:44:40.264Z,104501.81
2022-08-28T04:45:44.322Z,99499.16
2022-08-28T04:46:47.306Z,97834.25
2022-08-28T04:47:50.535Z,103841.22
2022-08-28T04:48:53.147Z,102150.16
2022-08-28T04:49:55.448Z,100141.69
2022-08-28T04:50:58.332Z,94131.34
2022-08-28T04:52:00.757Z,94143.44
2022-08-28T04:53:03.268Z,98827.72
2022-08-28T04:54:05.631Z,104523.72
2022-08-28T04:55:08.275Z,110549.06
2022-08-28T04:56:13.158Z,104188.31
2022-08-28T04:57:15.359Z,107196.16
2022-08-28T04:58:19.533Z,102875.16
2022-08-28T04:59:27.486Z,108533.81
2022-08-28T05:00:29.797Z,107872.78
2022-08-28T05:01:32.062Z,110219.34
2022-08-28T05:02:35.692Z,105855.50
2022-08-28T05:03:39.901Z,103865.50
2022-08-28T05:04:42.930Z,105186.19
2022-08-28T05:05:48.323Z,96510.78
2022-08-28T05:06:50.562Z,104202.59
2022-08-28T05:07:52.751Z,112563.69
2022-08-28T05:08:57.568Z,106881.22
2022-08-28T05:09:59.907Z,108218.16
2022-08-28T05:11:33.417Z,108624.97
2022-08-28T05:12:36.623Z,121667.16
2022-08-28T05:13:40.956Z,122361.28
2022-08-28T05:14:43.350Z,117978.16
2022-08-28T05:15:48.706Z,121381.19
2022-08-28T05:16:53.130Z,121383.16
2022-08-28T05:17:55.329Z,124375.13
2022-08-28T05:19:01.983Z,121751.94
2022-08-28T05:20:05.571Z,127100.19
2022-08-28T05:21:20.697Z,131863.84
2022-08-28T05:22:23.695Z,134503.41
2022-08-28T05:23:25.902Z,130133.75
2022-08-28T05:24:28.382Z,136572.00
2022-08-28T05:25:32.752Z,146033.50
2022-08-28T05:26:36.251Z,141660.44
2022-08-28T05:27:42.232Z,139569.16
2022-08-28T05:28:44.845Z,137562.44
2022-08-28T05:29:50.177Z,134579.97
2022-08-28T05:30:52.975Z,139964.97
2022-08-28T05:31:55.563Z,145115.53
2022-08-28T05:32:59.144Z,143959.53
2022-08-28T05:34:02.690Z,148323.94
2022-08-28T05:35:05.333Z,149101.16
2022-08-28T05:36:08.407Z,148363.19
2022-08-28T05:37:10.610Z,143369.00
2022-08-28T05:38:15.605Z,140978.72
2022-08-28T05:39:17.971Z,129472.47
2022-08-28T05:40:22.274Z,132891.84
2022-08-28T05:41:30.205Z,138677.91
2022-08-28T05:42:37.095Z,136907.38
2022-08-28T05:43:41.074Z,141015.41
2022-08-28T05:44:43.279Z,147755.28
2022-08-28T05:45:45.553Z,146636.53
2022-08-28T05:46:48.413Z,147106.06
2022-08-28T05:47:51.962Z,140682.00
2022-08-28T05:48:55.530Z,137305.25
2022-08-28T05:49:58.597Z,134538.38
2022-08-28T05:51:12.421Z,127564.09
2022-08-28T05:52:15.465Z,149018.69
2022-08-28T05:53:18.326Z,149192.31
2022-08-28T05:54:20.546Z,149187.47
2022-08-28T05:55:22.989Z,149248.25
2022-08-28T05:56:30.067Z,149364.97
2022-08-28T05:57:32.291Z,149332.09
2022-08-28T05:58:37.136Z,149371.09
2022-08-28T05:59:39.588Z,149333.41
2022-08-28T06:00:41.726Z,149340.69
2022-08-28T06:01:47.012Z,149391.75
2022-08-28T06:02:50.198Z,149382.03
2022-08-28T06:03:59.250Z,149388.09
2022-08-28T06:05:02.333Z,149399.09
2022-08-28T06:06:05.028Z,149369.88
2022-08-28T06:07:08.082Z,149388.09
2022-08-28T06:08:10.301Z,149417.28
2022-08-28T06:09:29.588Z,149484.19
2022-08-28T06:10:32.212Z,149431.91
2022-08-28T06:11:34.871Z,149465.97
2022-08-28T06:12:37.117Z,149472.03
2022-08-28T06:13:39.337Z,149472.03
2022-08-28T06:14:41.754Z,149525.53
2022-08-28T06:15:45.535Z,149546.22
2022-08-28T06:16:52.382Z,149553.53
2022-08-28T06:17:54.587Z,149537.72
2022-08-28T06:18:57.629Z,149535.31
2022-08-28T06:19:59.805Z,149535.31
2022-08-28T06:21:02.811Z,149598.63
2022-08-28T06:22:07.540Z,149658.22
2022-08-28T06:23:12.258Z,149620.50
2022-08-28T06:24:14.831Z,149599.84
2022-08-28T06:25:17.350Z,149660.69
2022-08-28T06:26:19.681Z,149691.06
2022-08-28T06:27:22.386Z,149805.56
2022-08-28T06:28:27.388Z,149956.56
2022-08-28T06:29:30.328Z,149958.97
2022-08-28T06:30:32.520Z,149995.56
2022-08-28T06:31:34.847Z,150050.34
2022-08-28T06:32:37.167Z,150117.34
2022-08-28T06:33:39.878Z,150258.75
2022-08-28T06:34:42.138Z,150250.19
2022-08-28T06:35:47.610Z,150174.63
2022-08-28T06:36:53.819Z,150210.00
2022-08-28T06:37:57.007Z,150196.59
2022-08-28T06:39:00.872Z,150283.09
2022-08-28T06:40:03.470Z,150348.91
2022-08-28T06:41:11.907Z,150286.81
2022-08-28T06:42:14.211Z,150229.50
2022-08-28T06:43:18.873Z,150246.53
2022-08-28T06:44:21.663Z,150222.22
2022-08-28T06:45:23.906Z,150179.47
2022-08-28T06:46:27.346Z,150123.47
2022-08-28T06:47:29.535Z,150234.38
2022-08-28T06:48:31.968Z,150269.72
2022-08-28T06:49:34.230Z,150346.50
2022-08-28T06:50:41.251Z,150495.28
2022-08-28T06:51:43.773Z,150427.03
2022-08-28T06:52:45.942Z,150229.50
2022-08-28T06:53:48.149Z,150207.56
2022-08-28T06:54:55.664Z,150177.03
2022-08-28T06:56:06.512Z,150149.00
2022-08-28T06:57:09.357Z,150207.56
2022-08-28T06:58:12.700Z,150405.06
2022-08-28T06:59:14.979Z,150473.34
2022-08-28T07:00:17.583Z,150503.81
2022-08-28T07:01:24.209Z,150596.56
2022-08-28T07:02:28.321Z,150678.25
2022-08-28T07:03:31.046Z,150821.09
2022-08-28T07:04:33.846Z,150901.59
2022-08-28T07:05:36.030Z,150939.50
2022-08-28T07:06:41.205Z,151266.81
2022-08-28T07:07:43.372Z,151291.28
2022-08-28T07:08:45.971Z,151305.97
2022-08-28T07:09:48.167Z,151241.16
2022-08-28T07:10:50.336Z,151357.25
2022-08-28T07:11:52.865Z,151532.00
2022-08-28T07:12:55.062Z,151450.16
2022-08-28T07:13:57.702Z,151299.81
2022-08-28T07:15:00.268Z,151486.81
2022-08-28T07:16:03.391Z,151750.94
2022-08-28T07:17:07.252Z,151859.78
2022-08-28T07:18:09.483Z,151886.72
2022-08-28T07:19:13.096Z,151929.53
2022-08-28T07:20:15.278Z,151958.88
2022-08-28T07:21:17.745Z,151883.06
2022-08-28T07:22:20.161Z,152075.19
2022-08-28T07:23:22.532Z,152071.53
2022-08-28T07:24:25.734Z,152233.09
2022-08-28T07:25:27.984Z,152081.28
2022-08-28T07:26:30.232Z,151841.44
2022-08-28T07:27:34.984Z,151878.19
2022-08-28T07:28:37.699Z,151816.97
2022-08-28T07:29:39.920Z,152012.75
2022-08-28T07:30:42.730Z,151952.78
2022-08-28T07:31:53.402Z,152274.72
2022-08-28T07:32:57.001Z,152162.13
2022-08-28T07:33:59.107Z,152136.38
2022-08-28T07:35:01.306Z,152310.25
2022-08-28T07:36:07.584Z,151895.28
2022-08-28T07:37:14.680Z,151863.44
2022-08-28T07:38:17.637Z,152158.38
2022-08-28T07:39:22.961Z,152326.19
2022-08-28T07:40:25.296Z,152419.19
2022-08-28T07:41:30.588Z,152370.25
2022-08-28T07:42:51.315Z,152301.69
2022-08-28T07:44:12.105Z,152291.81
2022-08-28T07:45:14.189Z,152371.47
2022-08-28T07:46:16.388Z,152338.41
2022-08-28T07:47:18.726Z,152356.75
2022-08-28T07:48:21.353Z,152631.19
2022-08-28T07:49:24.381Z,152807.63
2022-08-28T07:50:26.551Z,152682.59
2022-08-28T07:51:28.938Z,152784.34
2022-08-28T07:52:31.173Z,152944.91
2022-08-28T07:53:36.519Z,152882.41
2022-08-28T07:54:40.488Z,152819.88
2022-08-28T07:55:43.216Z,152797.84
2022-08-28T07:56:46.495Z,152786.78
2022-08-28T07:57:49.968Z,152789.28
2022-08-28T07:58:53.788Z,152849.31
2022-08-28T07:59:55.939Z,153021.00
2022-08-28T08:00:58.253Z,152764.75
2022-08-28T08:02:00.841Z,152536.81
2022-08-28T08:03:03.472Z,152458.47
2022-08-28T08:04:13.010Z,152549.06
2022-08-28T08:05:15.818Z,152362.91
2022-08-28T08:06:18.659Z,152320.03
2022-08-28T08:07:20.902Z,152389.81
2022-08-28T08:08:23.442Z,152017.66
2022-08-28T08:09:25.810Z,151736.28
2022-08-28T08:10:27.975Z,151676.34
2022-08-28T08:11:36.739Z,151692.19
2022-08-28T08:12:38.957Z,151666.56
2022-08-28T08:13:41.222Z,151550.38
2022-08-28T08:14:46.635Z,151678.78
2022-08-28T08:15:51.229Z,151940.56
2022-08-28T08:16:53.655Z,152081.28
2022-08-28T08:17:56.363Z,152424.09
2022-08-28T08:18:58.646Z,152348.19
2022-08-28T08:20:03.964Z,152549.06
2022-08-28T08:21:08.601Z,152576.06
2022-08-28T08:22:10.830Z,152529.47
2022-08-28T08:23:13.385Z,152405.75
2022-08-28T08:24:20.771Z,152462.13
2022-08-28T08:25:23.105Z,152309.03
2022-08-28T08:26:28.244Z,152203.72
2022-08-28T08:27:38.805Z,151998.06
2022-08-28T08:28:43.769Z,151681.22
2022-08-28T08:29:45.977Z,151655.53
2022-08-28T08:30:48.212Z,151511.25
2022-08-28T08:31:59.090Z,151546.72
2022-08-28T08:33:01.294Z,151491.69
2022-08-28T08:34:05.010Z,151506.38
2022-08-28T08:35:07.565Z,151540.59
2022-08-28T08:36:12.204Z,151318.16
2022-08-28T08:37:15.360Z,151276.63
2022-08-28T08:38:17.511Z,151413.50
2022-08-28T08:39:19.919Z,151342.59
2022-08-28T08:40:22.447Z,151281.50
2022-08-28T08:41:27.751Z,151325.47
2022-08-28T08:42:33.256Z,151319.38
2022-08-28T08:43:49.069Z,151472.16
2022-08-28T08:44:53.698Z,151346.25
2022-08-28T08:45:56.047Z,151457.47
2022-08-28T08:47:14.140Z,151604.22
2022-08-28T08:48:28.640Z,151620.09
2022-08-28T08:49:35.935Z,151672.66
2022-08-28T08:50:38.325Z,151957.66
2022-08-28T08:51:50.437Z,151943.00
2022-08-28T08:53:17.295Z,152010.28
2022-08-28T08:54:21.176Z,152213.50
2022-08-28T08:55:25.317Z,151949.13
2022-08-28T08:56:34.498Z,151881.84
2022-08-28T08:57:39.014Z,151787.63
2022-08-28T08:58:45.751Z,151821.88
2022-08-28T08:59:48.010Z,151719.09
2022-08-28T09:01:09.456Z,151694.66
2022-08-28T09:02:31.500Z,151697.09
2022-08-28T09:03:53.025Z,151709.34
2022-08-28T09:05:05.413Z,151603.00
2022-08-28T09:06:18.165Z,151364.56
2022-08-28T09:07:35.584Z,151499.00
2022-08-28T09:08:44.450Z,151436.72
2022-08-28T09:09:58.173Z,151287.63
2022-08-28T09:11:22.547Z,151275.41
2022-08-28T09:12:28.070Z,151467.25
2022-08-28T09:13:48.794Z,151863.44
2022-08-28T09:14:51.114Z,151885.50
2022-08-28T09:15:53.505Z,152233.09
2022-08-28T09:16:57.574Z,152392.31
2022-08-28T09:18:15.103Z,152639.75
2022-08-28T09:19:21.089Z,152754.97
2022-08-28T09:20:32.665Z,152728.00
2022-08-28T09:21:41.441Z,152580.94
2022-08-28T09:22:48.056Z,152546.59
2022-08-28T09:23:53.416Z,152345.75
2022-08-28T09:24:55.730Z,152246.56
2022-08-28T09:26:01.809Z,152120.44
2022-08-28T09:27:22.405Z,152028.72
2022-08-28T09:28:29.848Z,151870.84
2022-08-28T09:29:39.887Z,151863.44
2022-08-28T09:30:43.841Z,151787.63
2022-08-28T09:31:46.041Z,151819.41
2022-08-28T09:33:00.895Z,151809.66
2022-08-28T09:34:30.013Z,151940.56
2022-08-28T09:35:34.748Z,151815.75
2022-08-28T09:36:38.778Z,151962.59
2022-08-28T09:37:42.696Z,151990.69
2022-08-28T09:38:44.882Z,151932.03
2022-08-28T09:39:48.963Z,151961.34
2022-08-28T09:41:27.671Z,152050.69
2022-08-28T09:42:49.409Z,152164.56
2022-08-28T09:43:51.989Z,152468.25
2022-08-28T09:45:00.003Z,152651.97
2022-08-28T09:46:24.106Z,153095.81
2022-08-28T09:47:46.382Z,152862.84
2022-08-28T09:48:52.407Z,152750.03
2022-08-28T09:49:54.566Z,152157.16
2022-08-28T09:51:04.733Z,152238.00
2022-08-28T09:52:25.010Z,152212.28
2022-08-28T09:53:29.138Z,151952.78
2022-08-28T09:54:36.486Z,152029.94
2022-08-28T09:56:11.124Z,151763.16
2022-08-28T09:57:13.329Z,152113.13
2022-08-28T09:58:15.840Z,152297.97
2022-08-28T09:59:20.578Z,152612.78
2022-08-28T10:00:23.035Z,152678.94
2022-08-28T10:01:44.559Z,152857.94
2022-08-28T10:03:07.761Z,153152.22
2022-08-28T10:04:16.652Z,153348.47
2022-08-28T10:05:38.890Z,153357.09
2022-08-28T10:06:44.216Z,153382.84
2022-08-28T10:07:51.482Z,152920.44
2022-08-28T10:09:04.262Z,153120.34
2022-08-28T10:10:25.682Z,152875.06
2022-08-28T10:11:44.285Z,152848.09
2022-08-28T10:13:14.116Z,152850.56
2022-08-28T10:14:48.895Z,152851.78
2022-08-28T10:16:23.241Z,153040.56
2022-08-28T10:17:39.660Z,153022.22
2022-08-28T10:19:03.966Z,153110.50
2022-08-28T10:20:21.224Z,153142.38
2022-08-28T10:21:41.665Z,153233.16
2022-08-28T10:23:17.612Z,152978.06
2022-08-28T10:24:26.802Z,152803.97
2022-08-28T10:25:53.601Z,152812.53
2022-08-28T10:26:56.415Z,152693.66
2022-08-28T10:28:29.868Z,152583.38
2022-08-28T10:30:02.685Z,152433.91
2022-08-28T10:31:27.391Z,152520.88
2022-08-28T10:32:45.548Z,152406.97
2022-08-28T10:34:25.860Z,152411.88
2022-08-28T10:35:52.805Z,153005.03
2022-08-28T10:37:13.613Z,153312.84
2022-08-28T10:38:19.889Z,153616.03
2022-08-28T10:39:48.065Z,153311.63
2022-08-28T10:41:06.153Z,153225.81
2022-08-28T10:42:10.022Z,153001.34
2022-08-28T10:43:30.686Z,152995.25
2022-08-28T10:45:05.350Z,153066.34
2022-08-28T10:46:14.889Z,153176.69
2022-08-28T10:47:19.843Z,153185.31
2022-08-28T10:48:33.724Z,152942.47
2022-08-28T10:49:46.969Z,153022.22
2022-08-28T10:51:35.318Z,152796.63
2022-08-28T10:53:01.987Z,152701.00
2022-08-28T10:54:23.262Z,152527.03
2022-08-28T10:55:34.531Z,152408.19
2022-08-28T10:56:56.151Z,152620.13
2022-08-28T10:58:24.977Z,152438.84
2022-08-28T10:59:30.573Z,152463.34
2022-08-28T11:00:34.728Z,152399.63
2022-08-28T11:01:40.479Z,152394.75
2022-08-28T11:02:48.188Z,152382.47
2022-08-28T11:03:51.842Z,152284.50
2022-08-28T11:04:58.466Z,152286.94
2022-08-28T11:06:12.882Z,152157.16
2022-08-28T11:07:27.882Z,152198.84
2022-08-28T11:08:33.334Z,152152.25
2022-08-28T11:09:47.369Z,151995.63
2022-08-28T11:10:51.971Z,151826.75
2022-08-28T11:12:02.272Z,151700.78
2022-08-28T11:13:07.225Z,151594.41
2022-08-28T11:14:10.569Z,151547.94
2022-08-28T11:15:40.858Z,151433.03
2022-08-28T11:16:46.763Z,151346.25
2022-08-28T11:17:50.244Z,151373.16
2022-08-28T11:19:29.933Z,151499.00
2022-08-28T11:20:32.306Z,151579.75
2022-08-28T11:21:54.723Z,151692.19
2022-08-28T11:23:18.949Z,151711.78
2022-08-28T11:24:43.596Z,151670.22
2022-08-28T11:25:57.495Z,151633.56
2022-08-28T11:27:06.075Z,151775.41
2022-08-28T11:28:25.412Z,151858.56
2022-08-28T11:30:11.635Z,151908.75
2022-08-28T11:31:18.980Z,151704.47
2022-08-28T11:32:30.993Z,151869.59
2022-08-28T11:33:36.272Z,152357.97
2022-08-28T11:35:12.334Z,152406.97
2022-08-28T11:36:20.345Z,152686.28
2022-08-28T11:37:45.404Z,152703.44
2022-08-28T11:38:57.460Z,152674.03
2022-08-28T11:40:18.527Z,152651.97
2022-08-28T11:41:27.321Z,152616.47
2022-08-28T11:42:35.809Z,152355.53
2022-08-28T11:43:40.870Z,152279.59
2022-08-28T11:44:45.003Z,152315.16
2022-08-28T11:45:47.325Z,152247.78
2022-08-28T11:46:52.246Z,152215.94
2022-08-28T11:47:56.805Z,152198.84
2022-08-28T11:49:01.755Z,152189.00
2022-08-28T11:50:27.212Z,151961.34
2022-08-28T11:51:51.103Z,151990.69
2022-08-28T11:53:23.858Z,152413.09
2022-08-28T11:54:56.785Z,152764.75
2022-08-28T11:56:30.584Z,153007.47
2022-08-28T11:59:47.223Z,153714.25
2022-08-28T12:01:01.503Z,153506.78
2022-08-28T12:02:40.911Z,153483.50
2022-08-28T12:03:55.088Z,153350.97
2022-08-28T12:04:57.463Z,153017.28
2022-08-28T12:06:00.936Z,153001.34
2022-08-28T12:07:20.848Z,152659.38
2022-08-28T12:08:44.595Z,152479.25
2022-08-28T12:09:48.782Z,152370.25
2022-08-28T12:10:53.844Z,152377.59
2022-08-28T12:11:59.538Z,152044.59
2022-08-28T12:13:03.833Z,152277.16
2022-08-28T12:14:28.662Z,152399.63
2022-08-28T12:15:31.219Z,152577.28
2022-08-28T12:17:00.972Z,152777.00
2022-08-28T12:18:07.045Z,153059.00
2022-08-28T12:19:10.148Z,153213.47
2022-08-28T12:20:22.667Z,153147.28
2022-08-28T12:21:27.939Z,153385.31
2022-08-28T12:22:46.557Z,153257.72
2022-08-28T12:24:09.009Z,153436.81
2022-08-28T12:25:39.382Z,153262.59
2022-08-28T12:26:47.190Z,153148.50
2022-08-28T12:27:49.780Z,152982.97
2022-08-28T12:29:00.088Z,152970.72
2022-08-28T12:30:02.676Z,152781.88
2022-08-28T12:31:04.823Z,152757.41
2022-08-28T12:32:24.672Z,152663.03
2022-08-28T12:33:38.647Z,152631.19
2022-08-28T12:34:50.179Z,152568.66
2022-08-28T12:35:52.504Z,152371.47
2022-08-28T12:37:00.758Z,152225.72
2022-08-28T12:38:06.355Z,152284.50
2022-08-28T12:39:16.420Z,152081.28
2022-08-28T12:40:32.268Z,152010.28
2022-08-28T12:41:35.838Z,151892.84
2022-08-28T12:42:51.986Z,151819.41
2022-08-28T12:43:59.759Z,151847.56
2022-08-28T12:45:09.556Z,151753.38